Main page
METAR-TAF:

METAR-TAF

Airports :

Larnaca, Cyprus

Larnaca International Airport

latitude: 34-53N, longitude: 033-38E, elevation: 2 m

Current weather observation

The report was made 8 minutes ago, at 16:00 UTC
Wind 2 kt from variable directions
Temperature 25°C
Humidity 41%
Pressure 1009 hPa
Visibility 10 km or more
Few clouds at a height of 3500 ft

METAR: LCLK 251600Z VRB02KT 9999 FEW035 25/11 Q1009 NOSIG

Time: 19:08 (16:08 UTC)

Forecast

The report was made 4 hours and 38 minutes ago, at 11:30 UTC
Forecast valid from 25 at 12 UTC to 26 at 12 UTC
Wind 10 kt from the Northeast
Visibility 10 km or more
Few clouds at a height of 3000 ft
Becoming
from 25 at 16 UTC to 25 at 20 UTC
Wind 8 kt from the North/Northwest
Becoming
from 26 at 06 UTC to 26 at 10 UTC
Wind 10 kt from the East/Northeast

TAF: LCLK 251130Z 2512/2612 04010KT 9999 FEW030 BECMG 2516/2520 34008KT BECMG 2606/2610 06010KT

Weather observations and forecasts of more than 4000 airports (METAR and TAF reports).

The available stations are represented by yellow and red dots on the map.

Hover mouse over dot to see the name of the station.

Then click to see weather observations and forecasts.

To change the map : click on the green buttons with a black cross to zoom in, on the green button with a dash to zoom out, or on the green arrows for adjacent maps.


METAR-TAF: